Time;durP1;ratioP1;P1;durP2;ratioP2;P2;SDS_P1;SDS_P2;PMS_P1;PMS_P2;Temp;Humidity;BMP_temperature;BMP_pressure;BME280_temperature;BME280_humidity;BME280_pressure;Samples;Min_cycle;Max_cycle;Signal;HPM_P1;HPM_P2
2022/05/23 00:02:18;;;;;;;;;5.00;5.00;;;;;19.60;100.00;100021.63;5050646;28;45489;-80
2022/05/23 00:04:45;;;;;;;;;9.00;4.67;;;;;19.60;100.00;100030.78;5055218;28;45548;-79
2022/05/23 00:07:22;;;;;;;;;6.33;5.00;;;;;19.58;100.00;100041.34;5054613;28;45530;-77
2022/05/23 00:09:49;;;;;;;;;8.67;5.67;;;;;19.66;100.00;100042.72;5056248;28;45994;-79
2022/05/23 00:12:14;;;;;;;;;6.00;4.33;;;;;19.68;100.00;100037.69;5050577;28;45399;-79
2022/05/23 00:14:41;;;;;;;;;8.67;6.67;;;;;19.69;100.00;100042.97;5053176;28;45795;-79
2022/05/23 00:17:09;;;;;;;;;9.67;5.00;;;;;19.71;100.00;100056.59;5054251;28;45285;-80
2022/05/23 00:19:34;;;;;;;;;4.67;4.67;;;;;19.73;100.00;100051.53;5053329;28;45433;-79
2022/05/23 00:22:00;;;;;;;;;5.67;5.67;;;;;19.74;100.00;100039.31;5051944;28;45527;-79
2022/05/23 00:24:25;;;;;;;;;4.33;4.33;;;;;19.79;100.00;100033.75;5053788;28;45367;-77
2022/05/23 00:26:51;;;;;;;;;6.33;5.33;;;;;19.75;100.00;100013.16;5069146;27;46453;-80
2022/05/23 00:29:17;;;;;;;;;5.33;5.33;;;;;19.83;100.00;100026.47;5048887;28;47888;-78
2022/05/23 00:37:11;;;;;;;;;5.00;5.00;;;;;19.84;100.00;100003.09;5056690;28;45401;-79
2022/05/23 00:39:36;;;;;;;;;6.67;6.33;;;;;19.89;100.00;100003.06;5057500;27;45828;-78
2022/05/23 00:44:54;;;;;;;;;3.33;3.33;;;;;19.87;100.00;99976.66;5053813;28;45458;-79
2022/05/23 00:47:23;;;;;;;;;3.00;3.00;;;;;19.84;100.00;99960.53;5053202;28;45667;-77
2022/05/23 00:49:49;;;;;;;;;3.67;3.67;;;;;19.86;100.00;99973.03;5051056;28;48126;-79
2022/05/23 00:52:24;;;;;;;;;3.67;3.67;;;;;19.86;100.00;99975.00;5052840;28;45904;-79
2022/05/23 00:54:51;;;;;;;;;4.00;4.00;;;;;19.68;100.00;99937.53;5053872;28;45844;-80
2022/05/23 00:57:20;;;;;;;;;4.00;4.00;;;;;19.84;100.00;99960.53;5044669;28;45630;-78
2022/05/23 00:59:47;;;;;;;;;5.00;5.00;;;;;19.78;100.00;99953.38;5055757;28;45499;-81
2022/05/23 01:02:15;;;;;;;;;6.00;5.00;;;;;19.78;100.00;99953.38;5058760;28;45419;-79
2022/05/23 01:04:41;;;;;;;;;5.00;4.00;;;;;19.70;100.00;99938.06;5059978;28;45799;-82
2022/05/23 01:07:08;;;;;;;;;4.67;4.67;;;;;19.75;100.00;99957.53;5060735;28;45372;-82
2022/05/23 01:09:35;;;;;;;;;3.00;2.67;;;;;19.74;100.00;99950.28;5059528;28;45624;-82
2022/05/23 01:12:02;;;;;;;;;4.00;4.00;;;;;19.63;100.00;99926.47;5049627;28;44820;-81
2022/05/23 01:15:05;;;;;;;;;3.67;3.67;;;;;19.70;100.00;99946.41;5052762;28;45818;-80
2022/05/23 01:17:30;;;;;;;;;4.67;4.67;;;;;19.67;100.00;99921.97;5061637;28;45816;-83
2022/05/23 01:19:56;;;;;;;;;5.00;5.00;;;;;19.64;100.00;99914.19;5055013;28;45840;-82
2022/05/23 01:22:30;;;;;;;;;4.00;4.00;;;;;19.62;100.00;99902.53;5052197;28;45415;-83
2022/05/23 01:25:07;;;;;;;;;4.00;4.00;;;;;19.54;100.00;99888.13;5055483;28;45928;-81
2022/05/23 01:27:34;;;;;;;;;4.00;4.00;;;;;19.54;100.00;99899.25;5054947;28;46683;-84
2022/05/23 01:30:00;;;;;;;;;3.67;3.67;;;;;19.52;100.00;99895.94;5052195;28;47481;-83
2022/05/23 01:32:25;;;;;;;;;3.67;3.67;;;;;19.48;100.00;99880.13;5053040;28;45455;-82
2022/05/23 01:34:51;;;;;;;;;5.00;5.00;;;;;19.36;100.00;99866.59;5060018;28;45403;-85
2022/05/23 01:37:20;;;;;;;;;4.00;4.00;;;;;19.39;100.00;99875.16;5052154;28;46095;-81
2022/05/23 01:39:46;;;;;;;;;3.33;3.00;;;;;19.28;100.00;99853.28;5065890;28;47385;-80
2022/05/23 01:42:11;;;;;;;;;7.00;6.67;;;;;19.23;100.00;99835.50;5058966;27;45764;-84
2022/05/23 01:44:37;;;;;;;;;6.00;5.00;;;;;19.29;100.00;99857.72;5058319;28;45940;-80
2022/05/23 01:47:15;;;;;;;;;11.00;5.33;;;;;19.26;100.00;99852.75;5062710;28;45706;-82
2022/05/23 01:49:41;;;;;;;;;8.33;8.33;;;;;19.20;100.00;99833.31;5058389;28;47278;-80
2022/05/23 01:52:08;;;;;;;;;6.67;6.67;;;;;19.20;100.00;99821.38;5056191;28;45412;-80
2022/05/23 01:54:34;;;;;;;;;9.33;8.00;;;;;19.17;100.00;99820.00;5055342;28;45382;-83
2022/05/23 01:57:01;;;;;;;;;8.33;8.33;;;;;19.15;100.00;99815.88;5054638;28;45513;-81
2022/05/23 02:02:11;;;;;;;;;8.67;7.67;;;;;19.12;100.00;99806.16;5052275;28;45814;-81
2022/05/23 02:04:36;;;;;;;;;7.67;7.67;;;;;18.89;100.00;99763.22;5054568;28;45453;-83
2022/05/23 02:07:03;;;;;;;;;6.67;6.67;;;;;19.06;100.00;99807.31;5055619;28;45859;-83
2022/05/23 02:09:29;;;;;;;;;8.33;8.00;;;;;18.90;100.00;99770.44;5058818;28;46413;-82
2022/05/23 02:11:56;;;;;;;;;6.00;4.67;;;;;19.08;100.00;99809.78;5051029;28;45576;-81
2022/05/23 02:14:21;;;;;;;;;5.67;5.67;;;;;18.95;100.00;99783.47;5049999;28;45598;-82
2022/05/23 02:16:47;;;;;;;;;5.33;5.33;;;;;19.06;100.00;99801.75;5052841;28;45968;-81
2022/05/23 02:19:12;;;;;;;;;7.00;7.00;;;;;18.92;100.00;99798.78;5051270;28;47165;-81
2022/05/23 02:21:38;;;;;;;;;8.33;8.33;;;;;19.05;100.00;99820.34;5054220;28;45543;-84
2022/05/23 02:24:04;;;;;;;;;6.67;5.67;;;;;18.97;100.00;99815.41;5060117;28;45365;-80
2022/05/23 02:26:30;;;;;;;;;6.33;4.00;;;;;18.98;100.00;99816.25;5052698;28;45517;-82
2022/05/23 02:28:56;;;;;;;;;4.33;4.33;;;;;18.86;100.00;99816.59;5061818;28;45437;-82
2022/05/23 02:31:22;;;;;;;;;5.00;5.00;;;;;18.92;100.00;99832.09;5053072;28;45763;-81
2022/05/23 02:33:48;;;;;;;;;3.33;2.00;;;;;18.86;100.00;99828.56;5052934;28;45521;-81
2022/05/23 02:36:13;;;;;;;;;9.33;5.33;;;;;18.97;100.00;99839.59;5053666;28;46098;-81
2022/05/23 02:38:39;;;;;;;;;5.00;5.00;;;;;18.99;100.00;99829.03;5052837;28;46603;-80
2022/05/23 02:41:04;;;;;;;;;6.33;5.67;;;;;18.97;100.00;99825.72;5053823;28;45926;-83
2022/05/23 02:43:30;;;;;;;;;4.00;4.00;;;;;18.93;100.00;99819.06;5055590;28;45563;-82
2022/05/23 02:45:56;;;;;;;;;6.33;5.33;;;;;18.98;100.00;99819.88;5054574;28;45809;-82
2022/05/23 02:48:21;;;;;;;;;7.33;6.33;;;;;18.79;100.00;99788.28;5057059;28;46576;-80
2022/05/23 02:50:47;;;;;;;;;8.67;5.67;;;;;18.96;100.00;99824.03;5050873;28;45707;-82
2022/05/23 02:53:13;;;;;;;;;5.00;5.00;;;;;18.91;100.00;99827.69;5052366;28;45778;-80
2022/05/23 02:55:38;;;;;;;;;6.33;5.33;;;;;18.93;100.00;99838.50;5054102;28;45353;-82
2022/05/23 02:58:04;;;;;;;;;4.67;4.67;;;;;18.91;100.00;99835.16;5052130;28;45570;-81
2022/05/23 03:00:29;;;;;;;;;3.33;3.00;;;;;18.87;100.00;99838.53;5056933;28;45760;-80
2022/05/23 03:03:01;;;;;;;;;6.67;4.33;;;;;18.88;100.00;99834.63;5051111;28;45358;-82
2022/05/23 03:05:27;;;;;;;;;3.67;3.67;;;;;18.90;100.00;99837.13;5045070;28;45480;-81
2022/05/23 03:07:54;;;;;;;;;5.67;4.67;;;;;18.87;100.00;99830.19;5051481;28;46730;-83
2022/05/23 03:10:19;;;;;;;;;6.00;6.00;;;;;18.91;100.00;99832.41;5052295;28;45422;-82
2022/05/23 03:12:45;;;;;;;;;6.67;6.00;;;;;18.82;100.00;99807.97;5047314;28;45519;-83
2022/05/23 03:15:12;;;;;;;;;6.33;5.00;;;;;18.83;100.00;99825.47;5052290;28;46083;-81
2022/05/23 03:17:38;;;;;;;;;8.00;7.00;;;;;18.95;100.00;99828.78;5051573;28;46018;-81
2022/05/23 03:20:05;;;;;;;;;7.67;5.33;;;;;19.02;100.00;99853.47;5065588;28;45497;-82
2022/05/23 03:27:59;;;;;;;;;9.00;9.00;;;;;19.11;100.00;99835.06;5078298;28;45332;-83
2022/05/23 03:30:25;;;;;;;;;15.67;13.67;;;;;19.14;100.00;99840.03;5062965;28;45529;-83
2022/05/23 03:32:51;;;;;;;;;14.33;14.00;;;;;19.12;100.00;99814.50;5054582;28;45356;-83
2022/05/23 03:35:17;;;;;;;;;15.67;15.67;;;;;19.19;100.00;99797.47;5060072;28;45681;-82
2022/05/23 03:37:43;;;;;;;;;15.33;14.33;;;;;19.16;100.00;99773.03;5063983;28;47714;-82
2022/05/23 03:40:10;;;;;;;;;20.00;20.00;;;;;19.16;100.00;99757.22;5057886;27;45689;-83
2022/05/23 03:42:35;;;;;;;;;20.33;18.67;;;;;19.04;100.00;99748.38;5057663;28;45807;-83
2022/05/23 03:45:01;;;;;;;;;33.67;25.67;;;;;19.10;100.00;99783.38;5081217;28;45774;-83
2022/05/23 03:47:27;;;;;;;;;27.00;24.00;;;;;18.98;100.00;99780.97;5080001;28;45484;-82
2022/05/23 03:49:52;;;;;;;;;24.00;22.67;;;;;18.95;100.00;99789.03;5087339;28;45290;-82
2022/05/23 03:52:20;;;;;;;;;30.00;26.33;;;;;18.92;100.00;99775.72;5078425;28;45401;-83
2022/05/23 03:54:46;;;;;;;;;27.67;26.33;;;;;18.79;100.00;99753.00;5068425;28;44803;-81
2022/05/23 03:57:12;;;;;;;;;27.00;25.67;;;;;18.83;100.00;99742.13;5060351;28;45437;-83
2022/05/23 03:59:37;;;;;;;;;28.33;26.67;;;;;18.90;100.00;99750.19;5077095;28;44793;-82
2022/05/23 04:02:03;;;;;;;;;33.33;29.67;;;;;18.81;100.00;99749.94;5079042;28;44744;-82
2022/05/23 04:04:31;;;;;;;;;24.00;24.00;;;;;18.80;100.00;99770.50;5074765;28;46391;-83
2022/05/23 04:07:02;;;;;;;;;24.67;24.67;;;;;18.77;100.00;99785.81;5085334;28;45625;-84
2022/05/23 04:09:29;;;;;;;;;21.33;21.33;;;;;18.60;100.00;99746.47;5076011;27;44715;-82
2022/05/23 04:11:56;;;;;;;;;25.67;23.67;;;;;18.77;100.00;99763.59;5075823;28;44853;-82
2022/05/23 04:14:22;;;;;;;;;24.00;22.67;;;;;18.68;100.00;99729.19;5075525;28;47312;-82
2022/05/23 04:16:49;;;;;;;;;23.00;21.33;;;;;18.84;100.00;99743.78;5077076;28;45003;-81
2022/05/23 04:19:15;;;;;;;;;21.33;20.00;;;;;18.83;100.00;99747.69;5077116;28;45749;-84
2022/05/23 04:21:43;;;;;;;;;20.33;20.00;;;;;18.84;100.00;99736.28;5071106;28;44820;-81
2022/05/23 04:24:10;;;;;;;;;21.67;20.00;;;;;18.87;100.00;99732.97;5072795;27;45160;-83
2022/05/23 04:26:36;;;;;;;;;24.33;20.00;;;;;18.74;100.00;99696.66;5069990;28;45406;-82
2022/05/23 04:29:02;;;;;;;;;20.67;17.00;;;;;18.95;100.00;99722.34;5038235;28;45452;-83
2022/05/23 04:31:28;;;;;;;;;19.33;19.33;;;;;18.95;100.00;99703.75;5050008;28;45418;-83
2022/05/23 04:36:37;;;;;;;;;16.33;14.33;;;;;18.84;100.00;99688.25;5045380;28;46022;-82
2022/05/23 04:39:03;;;;;;;;;13.33;12.00;;;;;18.85;100.00;99693.53;5048439;28;45756;-83
2022/05/23 04:41:28;;;;;;;;;10.67;10.67;;;;;18.82;100.00;99699.63;5046274;28;45434;-83
2022/05/23 04:43:54;;;;;;;;;14.33;12.33;;;;;18.72;100.00;99690.56;5047498;28;45771;-83
2022/05/23 04:46:20;;;;;;;;;13.00;12.00;;;;;18.80;100.00;99706.59;5042147;28;45831;-82
2022/05/23 04:51:29;;;;;;;;;11.00;7.67;;;;;18.80;100.00;99703.81;5052307;28;45435;-82
2022/05/23 04:53:56;;;;;;;;;10.00;10.00;;;;;18.73;100.00;99690.28;5072806;28;45852;-82
2022/05/23 04:56:23;;;;;;;;;11.33;10.67;;;;;18.82;100.00;99710.75;5058309;28;45486;-82
2022/05/23 04:58:48;;;;;;;;;12.00;10.00;;;;;18.73;100.00;99686.66;5059014;28;45484;-82
2022/05/23 05:01:14;;;;;;;;;7.33;7.33;;;;;18.94;100.00;99710.41;5055676;28;45741;-84
2022/05/23 05:03:41;;;;;;;;;8.00;8.00;;;;;18.69;100.00;99675.28;5058230;28;45365;-83
2022/05/23 05:06:09;;;;;;;;;10.00;8.67;;;;;18.71;100.00;99678.59;5062593;28;47833;-83
2022/05/23 05:08:35;;;;;;;;;8.67;8.67;;;;;18.83;100.00;99708.78;5065494;28;45787;-82
2022/05/23 05:11:05;;;;;;;;;7.00;7.00;;;;;18.73;100.00;99687.50;5057249;28;45342;-82
2022/05/23 05:13:33;;;;;;;;;10.00;7.33;;;;;18.74;100.00;99686.34;5062578;28;46365;-82
2022/05/23 05:16:05;;;;;;;;;7.67;7.67;;;;;18.61;100.00;99670.38;5055691;28;47362;-81
2022/05/23 05:18:33;;;;;;;;;10.33;8.33;;;;;18.43;100.00;99678.25;5058699;28;45638;-81
2022/05/23 05:21:04;;;;;;;;;11.67;10.33;;;;;18.40;100.00;99667.72;5052963;28;45596;-81
2022/05/23 05:23:31;;;;;;;;;10.00;10.00;;;;;18.16;100.00;99634.31;5066772;28;44983;-84
2022/05/23 05:25:57;;;;;;;;;9.33;8.00;;;;;18.28;100.00;99659.75;5070171;28;45623;-83
2022/05/23 05:28:23;;;;;;;;;6.00;6.00;;;;;18.24;100.00;99668.94;5064619;28;45457;-82
2022/05/23 05:30:54;;;;;;;;;7.67;6.33;;;;;18.11;100.00;99645.41;5065426;28;45790;-81
2022/05/23 05:33:24;;;;;;;;;5.67;5.67;;;;;18.33;100.00;99640.28;5052592;28;45660;-78
2022/05/23 05:35:57;;;;;;;;;7.00;7.00;;;;;18.45;100.00;99603.00;5054646;28;46501;-82
2022/05/23 05:38:33;;;;;;;;;7.67;7.67;;;;;19.05;100.00;99620.28;5052383;28;45529;-81
2022/05/23 05:41:04;;;;;;;;;11.67;8.67;;;;;19.29;100.00;99601.97;5036466;28;45494;-84
2022/05/23 05:43:36;;;;;;;;;10.33;9.67;;;;;19.39;100.00;99621.31;5049812;28;45620;-82
2022/05/23 05:46:12;;;;;;;;;8.00;6.67;;;;;19.42;100.00;99634.63;5050539;28;46297;-80
2022/05/23 05:48:40;;;;;;;;;8.67;7.33;;;;;19.48;100.00;99647.34;5045450;28;45797;-80
2022/05/23 05:51:11;;;;;;;;;3.67;3.67;;;;;19.53;100.00;99663.97;5054818;28;45521;-84
2022/05/23 05:53:37;;;;;;;;;7.67;7.33;;;;;19.65;100.00;99679.44;5046122;28;45776;-79
2022/05/23 05:56:04;;;;;;;;;9.00;9.00;;;;;19.71;100.00;99672.66;5051159;28;45749;-78
2022/05/23 05:58:32;;;;;;;;;9.00;9.00;;;;;19.80;100.00;99659.78;5053314;28;45390;-84
2022/05/23 06:00:58;;;;;;;;;6.67;6.33;;;;;19.93;100.00;99667.41;5051575;28;46397;-83
2022/05/23 06:03:23;;;;;;;;;7.33;5.00;;;;;20.07;100.00;99652.78;5079840;27;46137;-83
2022/05/23 06:11:24;;;;;;;;;11.00;8.67;;;;;20.49;100.00;99631.53;5047222;28;45514;-81
2022/05/23 06:13:51;;;;;;;;;11.00;10.00;;;;;20.77;100.00;99656.78;5046900;28;46327;-80
2022/05/23 06:16:18;;;;;;;;;8.67;7.67;;;;;20.88;100.00;99661.03;5040652;28;45787;-79
2022/05/23 06:18:45;;;;;;;;;10.67;9.00;;;;;21.10;100.00;99656.75;5050198;28;45804;-86
2022/05/23 06:21:11;;;;;;;;;6.00;6.00;;;;;21.33;100.00;99643.78;5051396;28;45737;-80
2022/05/23 06:23:37;;;;;;;;;8.67;8.67;;;;;21.41;100.00;99659.00;5052927;28;45386;-82
2022/05/23 06:26:03;;;;;;;;;11.00;11.00;;;;;21.43;100.00;99667.88;5052266;28;45319;-81
2022/05/23 06:28:29;;;;;;;;;9.00;6.67;;;;;21.33;100.00;99641.84;5042514;28;45715;-79
2022/05/23 06:30:57;;;;;;;;;7.33;7.33;;;;;21.34;100.00;99651.84;5048242;28;45688;-79
2022/05/23 06:33:23;;;;;;;;;9.33;7.67;;;;;21.26;100.00;99621.88;5054475;28;45813;-86
2022/05/23 06:35:48;;;;;;;;;7.33;7.33;;;;;21.41;100.00;99636.69;5053386;28;48273;-79
2022/05/23 06:38:15;;;;;;;;;12.33;8.00;;;;;21.43;100.00;99634.41;5051443;28;45532;-86
2022/05/23 06:40:40;;;;;;;;;6.33;6.00;;;;;21.45;100.00;99637.69;5054671;28;45406;-77
2022/05/23 06:43:06;;;;;;;;;5.00;5.00;;;;;21.45;100.00;99641.34;5053125;28;45820;-88
2022/05/23 06:45:31;;;;;;;;;5.00;5.00;;;;;21.43;100.00;99626.03;5056420;28;45818;-79
2022/05/23 06:47:57;;;;;;;;;4.67;4.67;;;;;21.45;100.00;99612.59;5046289;28;45470;-80
2022/05/23 06:50:23;;;;;;;;;5.00;5.00;;;;;21.46;100.00;99591.94;5055288;28;45522;-78
2022/05/23 06:52:52;;;;;;;;;4.33;4.33;;;;;21.49;100.00;99569.00;5040407;28;45921;-80
2022/05/23 06:55:18;;;;;;;;;5.00;5.00;;;;;21.73;100.00;99601.47;5041201;28;45910;-83
2022/05/23 06:57:43;;;;;;;;;3.00;3.00;;;;;21.83;100.00;99596.47;5048848;28;45852;-85
2022/05/23 07:00:09;;;;;;;;;6.67;6.67;;;;;22.01;100.00;99600.28;5038007;28;45842;-84
2022/05/23 07:02:39;;;;;;;;;4.67;4.00;;;;;22.19;100.00;99592.06;5036231;28;45714;-82
2022/05/23 07:13:18;;;;;;;;;6.67;6.33;;;;;22.71;100.00;99553.34;5047064;28;45732;-78
2022/05/23 07:15:48;;;;;;;;;5.00;5.00;;;;;22.78;100.00;99572.47;5040695;28;48195;-80
2022/05/23 07:18:15;;;;;;;;;5.00;5.00;;;;;22.74;100.00;99582.66;5037972;28;45824;-77
2022/05/23 07:20:41;;;;;;;;;4.00;4.00;;;;;22.72;100.00;99593.31;5047957;28;45778;-78
2022/05/23 07:23:07;;;;;;;;;5.00;4.33;;;;;22.62;100.00;99586.03;5044260;28;45865;-78
2022/05/23 07:25:32;;;;;;;;;6.67;4.00;;;;;22.64;100.00;99592.09;5041049;28;46013;-78
2022/05/23 07:27:58;;;;;;;;;4.33;4.33;;;;;22.47;100.00;99566.81;5047133;28;45735;-77
2022/05/23 07:30:28;;;;;;;;;5.00;5.00;;;;;22.39;100.00;99582.38;5044836;28;45571;-83
2022/05/23 07:32:54;;;;;;;;;6.67;6.67;;;;;22.17;100.00;99577.56;5046612;28;46244;-78
2022/05/23 07:35:20;;;;;;;;;6.00;6.00;;;;;22.25;100.00;99603.94;5051918;28;46562;-85
2022/05/23 07:37:46;;;;;;;;;4.33;4.33;;;;;22.21;100.00;99603.72;5043859;28;45907;-79
2022/05/23 07:40:13;;;;;;;;;7.00;5.67;;;;;22.04;100.00;99605.22;5046928;28;46076;-84
2022/05/23 07:42:38;;;;;;;;;8.33;6.67;;;;;21.92;100.00;99609.72;5038758;28;45691;-77
2022/05/23 07:45:05;;;;;;;;;6.33;6.33;;;;;21.94;100.00;99615.81;5042649;28;45961;-78
2022/05/23 07:47:31;;;;;;;;;3.67;3.67;;;;;21.81;100.00;99578.38;5047243;28;45660;-84
2022/05/23 07:49:57;;;;;;;;;7.33;7.33;;;;;21.96;100.00;99613.50;5042363;28;45348;-77
2022/05/23 07:52:26;;;;;;;;;7.67;7.33;;;;;21.98;100.00;99616.84;5041125;28;45864;-85
2022/05/23 08:00:34;;;;;;;;;4.33;4.33;;;;;23.16;100.00;99523.66;5004423;28;45959;-78
2022/05/23 08:03:01;;;;;;;;;7.00;5.00;;;;;23.82;100.00;99494.81;5045910;28;46329;-83
2022/05/23 08:05:27;;;;;;;;;5.67;5.00;;;;;24.15;100.00;99482.00;5046189;28;46285;-78
2022/05/23 08:07:53;;;;;;;;;5.00;5.00;;;;;24.50;100.00;99521.16;5046874;28;45932;-86
2022/05/23 08:10:20;;;;;;;;;9.00;6.00;;;;;24.70;100.00;99526.44;5046720;28;45477;-84
2022/05/23 08:12:50;;;;;;;;;9.00;8.00;;;;;24.84;100.00;99541.09;5045677;28;45875;-85
2022/05/23 08:15:16;;;;;;;;;6.67;5.33;;;;;24.81;100.00;99545.38;5060205;28;45485;-82
2022/05/23 08:17:43;;;;;;;;;5.33;5.33;;;;;24.75;100.00;99551.50;5058865;28;45968;-85
2022/05/23 08:20:10;;;;;;;;;6.00;5.00;;;;;24.68;100.00;99549.19;5056151;28;45560;-83
2022/05/23 08:22:36;;;;;;;;;7.67;7.67;;;;;24.70;100.00;99548.84;5047470;27;46184;-77
2022/05/23 08:25:01;;;;;;;;;8.33;6.33;;;;;24.72;100.00;99546.56;5045244;28;45794;-79
2022/05/23 08:27:31;;;;;;;;;9.00;6.67;;;;;24.56;100.00;99535.81;5045838;28;45775;-80
2022/05/23 08:29:56;;;;;;;;;6.00;4.33;;;;;24.54;100.00;99559.75;5050514;28;45478;-86
2022/05/23 08:32:22;;;;;;;;;6.67;6.67;;;;;24.46;100.00;99559.44;5048130;28;45436;-82
2022/05/23 08:34:47;;;;;;;;;6.00;4.67;;;;;24.40;100.00;99566.38;5050432;28;46296;-78
2022/05/23 08:37:14;;;;;;;;;5.33;5.33;;;;;24.30;100.00;99572.31;5051479;28;45814;-79
2022/05/23 08:39:41;;;;;;;;;8.33;8.33;;;;;24.21;100.00;99579.91;5037291;28;45755;-79
2022/05/23 08:42:22;;;;;;;;;7.33;7.33;;;;;24.01;100.00;99593.38;5043403;28;45906;-82
2022/05/23 08:45:13;;;;;;;;;11.33;11.33;;;;;23.79;100.00;99586.72;5044961;28;46746;-81
2022/05/23 08:48:00;;;;;;;;;10.00;8.67;;;;;23.51;100.00;99579.75;5047674;28;45679;-85
2022/05/23 08:50:46;;;;;;;;;8.33;8.00;;;;;23.40;100.00;99574.44;5047588;28;45596;-85
2022/05/23 08:53:18;;;;;;;;;9.33;8.33;;;;;23.31;100.00;99572.75;5042781;28;45608;-76
2022/05/23 08:55:49;;;;;;;;;8.33;8.33;;;;;23.18;100.00;99574.50;5046163;28;45909;-84
2022/05/23 08:58:34;;;;;;;;;8.00;7.33;;;;;23.01;100.00;99595.63;5051713;28;45930;-83
2022/05/23 09:01:11;;;;;;;;;8.67;8.33;;;;;22.89;100.00;99592.59;5043285;28;46294;-86
2022/05/23 09:03:53;;;;;;;;;8.33;6.67;;;;;22.68;100.00;99592.28;5044980;28;45547;-84
2022/05/23 09:06:30;;;;;;;;;7.00;6.33;;;;;22.63;100.00;99590.44;5047872;28;45792;-78
2022/05/23 09:08:59;;;;;;;;;10.33;7.00;;;;;22.46;100.00;99593.13;5045384;28;45785;-78
2022/05/23 09:11:37;;;;;;;;;10.00;8.33;;;;;22.52;100.00;99611.41;5045868;27;46003;-84
2022/05/23 09:14:04;;;;;;;;;11.00;11.00;;;;;22.55;100.00;99605.19;5047295;28;45584;-77
2022/05/23 09:16:44;;;;;;;;;9.00;9.00;;;;;22.56;100.00;99596.50;5064406;28;46850;-79
2022/05/23 09:19:37;;;;;;;;;11.33;10.33;;;;;22.69;100.00;99599.53;5051335;28;45516;-80
2022/05/23 09:22:14;;;;;;;;;9.67;9.33;;;;;22.73;100.00;99590.19;5042399;28;45490;-79
2022/05/23 09:24:42;;;;;;;;;10.67;9.67;;;;;22.78;100.00;99591.22;5052064;28;45337;-80
2022/05/23 09:27:20;;;;;;;;;10.33;9.67;;;;;22.84;100.00;99578.75;5054060;28;46293;-85
2022/05/23 09:29:56;;;;;;;;;11.00;9.00;;;;;22.88;100.00;99574.97;5047832;28;45813;-81
2022/05/23 09:32:38;;;;;;;;;11.00;10.33;;;;;22.94;100.00;99577.66;5043595;28;45549;-84
2022/05/23 09:35:17;;;;;;;;;14.67;12.00;;;;;22.97;100.00;99577.03;5050920;28;45497;-84
2022/05/23 09:37:49;;;;;;;;;10.33;10.33;;;;;22.96;100.00;99559.41;5057211;28;45873;-85
2022/05/23 09:40:28;;;;;;;;;12.33;12.33;;;;;23.16;100.00;99568.41;5054291;28;45517;-84
2022/05/23 09:49:14;;;;;;;;;15.00;11.67;;;;;24.27;100.00;99564.56;5059534;28;45691;-80
2022/05/23 09:52:13;;;;;;;;;14.67;14.00;;;;;24.60;100.00;99555.66;5050608;28;45523;-78
2022/05/23 09:54:46;;;;;;;;;12.00;12.00;;;;;24.90;100.00;99539.75;5049785;28;45734;-79
2022/05/23 09:57:23;;;;;;;;;14.33;14.33;;;;;25.16;100.00;99536.81;5048942;28;45951;-78
2022/05/23 10:00:05;;;;;;;;;10.00;9.00;;;;;25.47;100.00;99537.72;5047630;28;46473;-84
2022/05/23 10:02:40;;;;;;;;;13.00;11.33;;;;;25.85;100.00;99543.25;5055491;28;45559;-82
2022/05/23 10:05:21;;;;;;;;;11.33;10.33;;;;;26.00;100.00;99546.63;5052077;28;45705;-84
2022/05/23 10:07:50;;;;;;;;;8.67;8.67;;;;;26.08;100.00;99554.19;5053791;28;45807;-85
2022/05/23 10:10:26;;;;;;;;;13.00;13.00;;;;;25.99;100.00;99528.97;5049678;28;47555;-77
2022/05/23 10:13:12;;;;;;;;;13.67;12.33;;;;;26.36;100.00;99543.19;5049936;28;45375;-78
2022/05/23 10:15:52;;;;;;;;;12.00;12.00;;;;;26.44;100.00;99533.03;5051455;28;44788;-81
2022/05/23 10:18:27;;;;;;;;;11.67;10.33;;;;;26.54;100.00;99537.38;5049299;28;45785;-78
2022/05/23 10:20:53;;;;;;;;;14.33;13.00;;;;;26.64;100.00;99538.94;5049070;28;46726;-79
2022/05/23 10:23:25;;;;;;;;;11.33;11.33;;;;;26.70;100.00;99540.41;5049807;28;45722;-80
2022/05/23 10:26:15;;;;;;;;;10.33;10.33;;;;;26.57;100.00;99543.16;5050766;28;45589;-79
2022/05/23 10:29:01;;;;;;;;;12.00;11.00;;;;;26.20;100.00;99547.81;5042782;28;46303;-82
2022/05/23 10:31:29;;;;;;;;;13.33;12.67;;;;;25.85;100.00;99551.69;5045038;28;45929;-81
2022/05/23 10:34:38;;;;;;;;;12.00;12.00;;;;;25.53;100.00;99544.78;5041099;28;45885;-79
2022/05/23 10:37:09;;;;;;;;;14.33;13.33;;;;;25.42;100.00;99552.75;5023043;28;46065;-81
2022/05/23 10:43:06;;;;;;;;;16.67;13.00;;;;;25.25;100.00;99556.41;4988607;28;46037;-79
2022/05/23 10:45:38;;;;;;;;;17.00;14.33;;;;;25.19;100.00;99536.16;5049833;28;45480;-82
2022/05/23 10:48:13;;;;;;;;;15.00;14.00;;;;;25.41;100.00;99548.31;5049671;28;45529;-81
2022/05/23 10:50:47;;;;;;;;;16.67;13.67;;;;;25.32;100.00;99539.09;5043861;28;45468;-81
2022/05/23 10:53:37;;;;;;;;;15.33;13.00;;;;;25.17;100.00;99532.84;5054668;28;46296;-81
2022/05/23 10:56:02;;;;;;;;;16.00;16.00;;;;;25.05;100.00;99552.38;5039808;28;45514;-81
2022/05/23 10:58:40;;;;;;;;;16.00;12.67;;;;;24.89;100.00;99548.50;5049862;28;45756;-81
2022/05/23 11:01:24;;;;;;;;;11.00;11.00;;;;;24.67;100.00;99555.94;5042935;28;47033;-85
2022/05/23 11:04:09;;;;;;;;;10.67;10.67;;;;;24.46;100.00;99556.63;5061182;28;47094;-84
2022/05/23 11:06:58;;;;;;;;;15.33;14.33;;;;;24.36;100.00;99551.38;5055174;27;45768;-82
2022/05/23 11:09:54;;;;;;;;;11.00;11.00;;;;;24.23;100.00;99552.34;5058916;28;45683;-81
2022/05/23 11:12:38;;;;;;;;;14.00;13.67;;;;;24.07;100.00;99555.66;5039199;28;47510;-80
2022/05/23 11:15:38;;;;;;;;;11.33;11.33;;;;;23.87;100.00;99564.69;5039353;28;45939;-82
2022/05/23 11:18:45;;;;;;;;;11.67;11.67;;;;;23.55;100.00;99569.56;5044897;28;45602;-80
2022/05/23 11:21:19;;;;;;;;;13.67;13.67;;;;;23.28;100.00;99571.44;5060356;28;45519;-80
2022/05/23 11:23:52;;;;;;;;;11.00;10.00;;;;;22.94;100.00;99569.28;5047949;28;46035;-82
2022/05/23 11:33:41;;;;;;;;;12.67;11.67;;;;;22.69;100.00;99580.78;5040347;28;47117;-82
2022/05/23 11:35:30;;;;;;;;;12.33;12.33;;;;;22.03;100.00;99572.84;5044290;28;45516;-81
2022/05/23 11:38:00;;;;;;;;;13.33;12.67;;;;;22.01;100.00;99580.72;5043579;28;45680;-82
2022/05/23 11:40:25;;;;;;;;;17.00;15.33;;;;;22.05;100.00;99580.91;5042179;28;45862;-81
2022/05/23 11:43:01;;;;;;;;;12.67;11.67;;;;;22.11;100.00;99590.00;5044606;28;45827;-89
2022/05/23 11:48:35;;;;;;;;;14.33;14.00;;;;;22.21;100.00;99584.19;5040610;28;45626;-80
2022/05/23 11:51:16;;;;;;;;;15.67;14.67;;;;;22.22;100.00;99597.00;5056154;28;45991;-81
2022/05/23 11:54:00;;;;;;;;;20.00;15.67;;;;;22.25;100.00;99596.38;5035858;28;45907;-83
2022/05/23 11:56:44;;;;;;;;;16.67;15.00;;;;;22.28;100.00;99600.53;5051371;28;45987;-84
2022/05/23 11:59:35;;;;;;;;;14.00;14.00;;;;;22.27;100.00;99596.88;5050702;28;45947;-82
2022/05/23 12:02:06;;;;;;;;;22.00;18.67;;;;;22.07;100.00;99605.75;5051940;28;45257;-83
2022/05/23 12:04:32;;;;;;;;;24.00;20.33;;;;;21.86;100.00;99607.03;5050301;28;45864;-84
2022/05/23 12:07:45;;;;;;;;;15.00;13.67;;;;;21.61;100.00;99613.97;5044788;28;45644;-80
2022/05/23 12:10:36;;;;;;;;;14.33;14.00;;;;;21.41;100.00;99614.38;5060848;27;47213;-82
2022/05/23 12:14:00;;;;;;;;;15.33;14.33;;;;;21.39;100.00;99627.78;5047515;28;45210;-81
2022/05/23 12:16:34;;;;;;;;;16.67;15.67;;;;;21.50;100.00;99618.13;4964574;28;45627;-82
2022/05/23 12:19:44;;;;;;;;;14.67;14.67;;;;;21.46;100.00;99611.47;4948720;28;46152;-80
2022/05/23 12:22:30;;;;;;;;;11.33;10.67;;;;;21.56;100.00;99614.09;4957737;28;45667;-83
2022/05/23 12:25:21;;;;;;;;;15.00;13.33;;;;;21.64;100.00;99616.13;4955644;28;45808;-83
2022/05/23 12:27:51;;;;;;;;;19.00;16.67;;;;;21.79;100.00;99617.78;5051058;28;45008;-80
2022/05/23 12:30:24;;;;;;;;;15.33;14.67;;;;;21.84;100.00;99636.38;5046279;28;45978;-83
2022/05/23 12:33:11;;;;;;;;;14.67;14.33;;;;;21.72;100.00;99606.19;5042811;28;47097;-84
2022/05/23 12:35:54;;;;;;;;;15.67;15.00;;;;;21.90;100.00;99621.19;5054069;28;46099;-82
2022/05/23 12:38:36;;;;;;;;;15.00;13.00;;;;;21.96;100.00;99617.16;5049793;28;45747;-87